sensor_id;sensor_type;location;lat;lon;timestamp;temperature;humidity
15700;DHT22;7950;42.744;23.174;2023-04-25T00:01:07;10.40;99.90
15700;DHT22;7950;42.744;23.174;2023-04-25T00:03:36;10.40;99.90
15700;DHT22;7950;42.744;23.174;2023-04-25T00:06:06;10.40;99.90
15700;DHT22;7950;42.744;23.174;2023-04-25T00:08:35;10.30;99.90
15700;DHT22;7950;42.744;23.174;2023-04-25T00:11:04;10.40;99.90
15700;DHT22;7950;42.744;23.174;2023-04-25T00:13:33;10.40;99.90
15700;DHT22;7950;42.744;23.174;2023-04-25T00:16:02;10.50;99.90
15700;DHT22;7950;42.744;23.174;2023-04-25T00:18:32;10.50;99.90
15700;DHT22;7950;42.744;23.174;2023-04-25T00:21:01;10.50;99.90
15700;DHT22;7950;42.744;23.174;2023-04-25T00:23:33;10.40;99.90
15700;DHT22;7950;42.744;23.174;2023-04-25T00:26:03;10.40;99.90
15700;DHT22;7950;42.744;23.174;2023-04-25T00:28:31;10.40;99.90
15700;DHT22;7950;42.744;23.174;2023-04-25T00:31:00;10.40;99.90
15700;DHT22;7950;42.744;23.174;2023-04-25T00:33:29;10.40;99.90
15700;DHT22;7950;42.744;23.174;2023-04-25T00:35:59;10.40;99.90
15700;DHT22;7950;42.744;23.174;2023-04-25T00:38:28;10.40;99.90
15700;DHT22;7950;42.744;23.174;2023-04-25T00:40:57;10.40;99.90
15700;DHT22;7950;42.744;23.174;2023-04-25T00:43:26;10.50;99.90
15700;DHT22;7950;42.744;23.174;2023-04-25T00:45:57;10.50;99.90
15700;DHT22;7950;42.744;23.174;2023-04-25T00:48:27;10.50;99.90
15700;DHT22;7950;42.744;23.174;2023-04-25T00:50:59;10.50;99.90
15700;DHT22;7950;42.744;23.174;2023-04-25T00:53:28;10.50;99.90
15700;DHT22;7950;42.744;23.174;2023-04-25T00:55:59;10.50;99.90
15700;DHT22;7950;42.744;23.174;2023-04-25T00:58:27;10.60;99.90
15700;DHT22;7950;42.744;23.174;2023-04-25T01:00:57;10.50;99.90
15700;DHT22;7950;42.744;23.174;2023-04-25T01:03:27;10.50;99.90
15700;DHT22;7950;42.744;23.174;2023-04-25T01:06:01;10.50;99.90
15700;DHT22;7950;42.744;23.174;2023-04-25T01:08:31;10.50;99.90
15700;DHT22;7950;42.744;23.174;2023-04-25T01:11:00;10.50;99.90
15700;DHT22;7950;42.744;23.174;2023-04-25T01:13:28;10.40;99.90
15700;DHT22;7950;42.744;23.174;2023-04-25T01:16:20;10.40;99.90
15700;DHT22;7950;42.744;23.174;2023-04-25T01:18:51;10.40;99.90
15700;DHT22;7950;42.744;23.174;2023-04-25T01:21:21;10.40;99.90
15700;DHT22;7950;42.744;23.174;2023-04-25T01:23:54;10.30;99.90
15700;DHT22;7950;42.744;23.174;2023-04-25T01:26:23;10.30;99.90
15700;DHT22;7950;42.744;23.174;2023-04-25T01:28:52;10.30;99.90
15700;DHT22;7950;42.744;23.174;2023-04-25T01:31:47;10.20;99.90
15700;DHT22;7950;42.744;23.174;2023-04-25T01:34:15;10.20;99.90
15700;DHT22;7950;42.744;23.174;2023-04-25T01:36:47;10.10;99.90
15700;DHT22;7950;42.744;23.174;2023-04-25T01:39:17;10.10;99.90
15700;DHT22;7950;42.744;23.174;2023-04-25T01:41:47;10.10;99.90
15700;DHT22;7950;42.744;23.174;2023-04-25T01:44:16;10.10;99.90
15700;DHT22;7950;42.744;23.174;2023-04-25T01:46:45;10.00;99.90
15700;DHT22;7950;42.744;23.174;2023-04-25T01:49:13;10.00;99.90
15700;DHT22;7950;42.744;23.174;2023-04-25T01:51:42;10.00;99.90
15700;DHT22;7950;42.744;23.174;2023-04-25T01:54:13;10.00;99.90
15700;DHT22;7950;42.744;23.174;2023-04-25T01:56:42;10.00;99.90
15700;DHT22;7950;42.744;23.174;2023-04-25T01:59:10;10.00;99.90
15700;DHT22;7950;42.744;23.174;2023-04-25T02:01:39;10.00;99.90
15700;DHT22;7950;42.744;23.174;2023-04-25T02:04:08;9.90;99.90
15700;DHT22;7950;42.744;23.174;2023-04-25T02:06:41;9.90;99.90
15700;DHT22;7950;42.744;23.174;2023-04-25T02:09:10;9.80;99.90
15700;DHT22;7950;42.744;23.174;2023-04-25T02:11:40;9.80;99.90
15700;DHT22;7950;42.744;23.174;2023-04-25T02:14:08;9.70;99.90
15700;DHT22;7950;42.744;23.174;2023-04-25T02:16:37;9.60;99.90
15700;DHT22;7950;42.744;23.174;2023-04-25T02:19:06;9.50;99.90
15700;DHT22;7950;42.744;23.174;2023-04-25T02:21:35;9.40;99.90
15700;DHT22;7950;42.744;23.174;2023-04-25T02:24:05;9.40;99.90
15700;DHT22;7950;42.744;23.174;2023-04-25T02:26:36;9.40;99.90
15700;DHT22;7950;42.744;23.174;2023-04-25T02:29:04;9.40;99.90
15700;DHT22;7950;42.744;23.174;2023-04-25T02:31:33;9.40;99.90
15700;DHT22;7950;42.744;23.174;2023-04-25T02:34:02;9.30;99.90
15700;DHT22;7950;42.744;23.174;2023-04-25T02:36:31;9.30;99.90
15700;DHT22;7950;42.744;23.174;2023-04-25T02:39:01;9.30;99.90
15700;DHT22;7950;42.744;23.174;2023-04-25T02:41:30;9.30;99.90
15700;DHT22;7950;42.744;23.174;2023-04-25T02:44:26;9.20;99.90
15700;DHT22;7950;42.744;23.174;2023-04-25T02:46:54;9.30;99.90
15700;DHT22;7950;42.744;23.174;2023-04-25T02:49:23;9.20;99.90
15700;DHT22;7950;42.744;23.174;2023-04-25T02:51:52;9.20;99.90
15700;DHT22;7950;42.744;23.174;2023-04-25T02:54:20;9.20;99.90
15700;DHT22;7950;42.744;23.174;2023-04-25T02:56:49;9.10;99.90
15700;DHT22;7950;42.744;23.174;2023-04-25T02:59:18;9.10;99.90
15700;DHT22;7950;42.744;23.174;2023-04-25T03:01:48;9.10;99.90
15700;DHT22;7950;42.744;23.174;2023-04-25T03:04:16;9.10;99.90
15700;DHT22;7950;42.744;23.174;2023-04-25T03:06:46;9.00;99.90
15700;DHT22;7950;42.744;23.174;2023-04-25T03:09:15;9.00;99.90
15700;DHT22;7950;42.744;23.174;2023-04-25T03:11:44;9.00;99.90
15700;DHT22;7950;42.744;23.174;2023-04-25T03:14:13;9.00;99.90
15700;DHT22;7950;42.744;23.174;2023-04-25T03:16:42;9.00;99.90
15700;DHT22;7950;42.744;23.174;2023-04-25T03:19:12;8.90;99.90
15700;DHT22;7950;42.744;23.174;2023-04-25T03:21:43;8.90;99.90
15700;DHT22;7950;42.744;23.174;2023-04-25T03:24:12;8.90;99.90
15700;DHT22;7950;42.744;23.174;2023-04-25T03:26:41;8.80;99.90
15700;DHT22;7950;42.744;23.174;2023-04-25T03:29:09;8.80;99.90
15700;DHT22;7950;42.744;23.174;2023-04-25T03:31:38;8.80;99.90
15700;DHT22;7950;42.744;23.174;2023-04-25T03:34:07;8.70;99.90
15700;DHT22;7950;42.744;23.174;2023-04-25T03:36:37;8.70;99.90
15700;DHT22;7950;42.744;23.174;2023-04-25T03:39:07;8.70;99.90
15700;DHT22;7950;42.744;23.174;2023-04-25T03:41:36;8.80;99.90
15700;DHT22;7950;42.744;23.174;2023-04-25T03:44:05;8.80;99.90
15700;DHT22;7950;42.744;23.174;2023-04-25T03:46:33;8.80;99.90
15700;DHT22;7950;42.744;23.174;2023-04-25T03:49:02;8.80;99.90
15700;DHT22;7950;42.744;23.174;2023-04-25T03:51:31;8.80;99.90
15700;DHT22;7950;42.744;23.174;2023-04-25T03:54:00;8.80;99.90
15700;DHT22;7950;42.744;23.174;2023-04-25T03:56:30;8.90;99.90
15700;DHT22;7950;42.744;23.174;2023-04-25T03:58:58;9.00;99.90
15700;DHT22;7950;42.744;23.174;2023-04-25T04:01:27;9.20;99.90
15700;DHT22;7950;42.744;23.174;2023-04-25T04:03:56;9.30;99.90
15700;DHT22;7950;42.744;23.174;2023-04-25T04:06:25;9.40;99.90
15700;DHT22;7950;42.744;23.174;2023-04-25T04:08:53;9.50;99.90
15700;DHT22;7950;42.744;23.174;2023-04-25T04:11:23;9.60;99.90
15700;DHT22;7950;42.744;23.174;2023-04-25T04:13:53;9.70;99.90
15700;DHT22;7950;42.744;23.174;2023-04-25T04:16:21;9.80;99.90
15700;DHT22;7950;42.744;23.174;2023-04-25T04:18:50;9.80;99.90
15700;DHT22;7950;42.744;23.174;2023-04-25T04:21:19;9.90;99.90
15700;DHT22;7950;42.744;23.174;2023-04-25T04:23:49;10.00;99.90
15700;DHT22;7950;42.744;23.174;2023-04-25T04:26:18;10.00;99.90
15700;DHT22;7950;42.744;23.174;2023-04-25T04:28:51;10.10;99.90
15700;DHT22;7950;42.744;23.174;2023-04-25T04:31:21;10.20;99.90
15700;DHT22;7950;42.744;23.174;2023-04-25T04:33:51;10.20;99.90
15700;DHT22;7950;42.744;23.174;2023-04-25T04:36:20;10.20;99.90
15700;DHT22;7950;42.744;23.174;2023-04-25T04:38:49;10.20;99.90
15700;DHT22;7950;42.744;23.174;2023-04-25T04:41:17;10.10;99.90
15700;DHT22;7950;42.744;23.174;2023-04-25T04:43:46;10.10;99.90
15700;DHT22;7950;42.744;23.174;2023-04-25T04:46:16;10.10;99.90
15700;DHT22;7950;42.744;23.174;2023-04-25T04:48:45;10.10;99.90
15700;DHT22;7950;42.744;23.174;2023-04-25T04:51:14;10.20;99.90
15700;DHT22;7950;42.744;23.174;2023-04-25T04:53:43;10.20;99.90
15700;DHT22;7950;42.744;23.174;2023-04-25T04:56:11;10.20;99.90
15700;DHT22;7950;42.744;23.174;2023-04-25T04:58:40;10.20;99.90
15700;DHT22;7950;42.744;23.174;2023-04-25T05:01:09;10.20;99.90
15700;DHT22;7950;42.744;23.174;2023-04-25T05:03:39;10.20;99.90
15700;DHT22;7950;42.744;23.174;2023-04-25T05:06:08;10.30;99.90
15700;DHT22;7950;42.744;23.174;2023-04-25T05:08:36;10.30;99.90
15700;DHT22;7950;42.744;23.174;2023-04-25T05:11:05;10.30;99.90
15700;DHT22;7950;42.744;23.174;2023-04-25T05:13:34;10.30;99.90
15700;DHT22;7950;42.744;23.174;2023-04-25T05:16:03;10.40;99.90
15700;DHT22;7950;42.744;23.174;2023-04-25T05:18:32;10.50;99.90
15700;DHT22;7950;42.744;23.174;2023-04-25T05:21:02;10.60;99.90
15700;DHT22;7950;42.744;23.174;2023-04-25T05:23:32;10.70;99.90
15700;DHT22;7950;42.744;23.174;2023-04-25T05:26:01;10.70;99.90
15700;DHT22;7950;42.744;23.174;2023-04-25T05:28:30;10.80;99.90
15700;DHT22;7950;42.744;23.174;2023-04-25T05:30:58;10.90;99.90
15700;DHT22;7950;42.744;23.174;2023-04-25T05:33:27;10.90;99.90
15700;DHT22;7950;42.744;23.174;2023-04-25T05:35:56;11.00;99.90
15700;DHT22;7950;42.744;23.174;2023-04-25T05:38:51;11.00;99.90
15700;DHT22;7950;42.744;23.174;2023-04-25T05:41:20;11.10;99.90
15700;DHT22;7950;42.744;23.174;2023-04-25T05:43:48;11.10;99.90
15700;DHT22;7950;42.744;23.174;2023-04-25T05:46:19;11.20;99.90
15700;DHT22;7950;42.744;23.174;2023-04-25T05:49:13;11.20;99.90
15700;DHT22;7950;42.744;23.174;2023-04-25T05:51:45;11.30;99.90
15700;DHT22;7950;42.744;23.174;2023-04-25T05:54:15;11.40;99.90
15700;DHT22;7950;42.744;23.174;2023-04-25T05:56:43;11.40;99.90
15700;DHT22;7950;42.744;23.174;2023-04-25T05:59:12;11.50;99.90
15700;DHT22;7950;42.744;23.174;2023-04-25T06:01:41;11.50;99.90
15700;DHT22;7950;42.744;23.174;2023-04-25T06:04:10;11.60;99.90
15700;DHT22;7950;42.744;23.174;2023-04-25T06:06:39;11.60;99.90
15700;DHT22;7950;42.744;23.174;2023-04-25T06:09:07;11.70;99.90
15700;DHT22;7950;42.744;23.174;2023-04-25T06:11:40;11.80;99.90
15700;DHT22;7950;42.744;23.174;2023-04-25T06:14:09;11.90;99.90
15700;DHT22;7950;42.744;23.174;2023-04-25T06:16:41;12.00;99.90
15700;DHT22;7950;42.744;23.174;2023-04-25T06:19:09;12.20;99.90
15700;DHT22;7950;42.744;23.174;2023-04-25T06:21:38;12.40;99.90
15700;DHT22;7950;42.744;23.174;2023-04-25T06:24:06;12.50;99.90
15700;DHT22;7950;42.744;23.174;2023-04-25T06:26:35;12.60;99.90
15700;DHT22;7950;42.744;23.174;2023-04-25T06:29:07;12.80;99.90
15700;DHT22;7950;42.744;23.174;2023-04-25T06:31:36;12.90;99.90
15700;DHT22;7950;42.744;23.174;2023-04-25T06:34:04;13.00;99.90
15700;DHT22;7950;42.744;23.174;2023-04-25T06:36:33;13.10;99.90
15700;DHT22;7950;42.744;23.174;2023-04-25T06:39:02;13.20;99.90
15700;DHT22;7950;42.744;23.174;2023-04-25T06:41:31;13.30;99.90
15700;DHT22;7950;42.744;23.174;2023-04-25T06:43:59;13.30;99.90
15700;DHT22;7950;42.744;23.174;2023-04-25T06:46:29;13.30;99.90
15700;DHT22;7950;42.744;23.174;2023-04-25T06:48:58;13.30;99.90
15700;DHT22;7950;42.744;23.174;2023-04-25T06:51:27;13.30;99.90
15700;DHT22;7950;42.744;23.174;2023-04-25T06:53:57;13.30;99.90
15700;DHT22;7950;42.744;23.174;2023-04-25T06:56:26;13.40;99.90
15700;DHT22;7950;42.744;23.174;2023-04-25T06:58:56;13.40;99.90
15700;DHT22;7950;42.744;23.174;2023-04-25T07:01:25;13.40;99.90
15700;DHT22;7950;42.744;23.174;2023-04-25T07:03:55;13.40;99.90
15700;DHT22;7950;42.744;23.174;2023-04-25T07:06:24;13.40;99.90
15700;DHT22;7950;42.744;23.174;2023-04-25T07:08:54;13.50;99.90
15700;DHT22;7950;42.744;23.174;2023-04-25T07:11:23;13.50;99.90
15700;DHT22;7950;42.744;23.174;2023-04-25T07:13:52;13.60;99.90
15700;DHT22;7950;42.744;23.174;2023-04-25T07:16:21;13.70;99.90
15700;DHT22;7950;42.744;23.174;2023-04-25T07:18:49;13.80;99.90
15700;DHT22;7950;42.744;23.174;2023-04-25T07:21:20;13.80;99.90
15700;DHT22;7950;42.744;23.174;2023-04-25T07:23:49;13.90;99.90
15700;DHT22;7950;42.744;23.174;2023-04-25T07:26:17;13.90;99.90
15700;DHT22;7950;42.744;23.174;2023-04-25T07:28:46;14.00;99.90
15700;DHT22;7950;42.744;23.174;2023-04-25T07:31:18;14.00;99.90
15700;DHT22;7950;42.744;23.174;2023-04-25T07:33:46;14.00;99.90
15700;DHT22;7950;42.744;23.174;2023-04-25T07:36:15;14.00;99.90
15700;DHT22;7950;42.744;23.174;2023-04-25T07:38:45;14.00;99.90
15700;DHT22;7950;42.744;23.174;2023-04-25T07:41:14;14.10;99.90
15700;DHT22;7950;42.744;23.174;2023-04-25T07:43:43;14.20;99.90
15700;DHT22;7950;42.744;23.174;2023-04-25T07:46:12;14.50;99.90
15700;DHT22;7950;42.744;23.174;2023-04-25T07:48:40;14.80;99.90
15700;DHT22;7950;42.744;23.174;2023-04-25T07:51:09;14.90;99.90
15700;DHT22;7950;42.744;23.174;2023-04-25T07:53:38;15.00;99.90
15700;DHT22;7950;42.744;23.174;2023-04-25T07:56:09;15.00;99.90
15700;DHT22;7950;42.744;23.174;2023-04-25T07:58:37;15.10;99.90
15700;DHT22;7950;42.744;23.174;2023-04-25T08:01:06;15.10;99.90
15700;DHT22;7950;42.744;23.174;2023-04-25T08:03:35;15.10;99.90
15700;DHT22;7950;42.744;23.174;2023-04-25T08:06:04;15.10;99.90
15700;DHT22;7950;42.744;23.174;2023-04-25T08:08:34;15.10;99.90
15700;DHT22;7950;42.744;23.174;2023-04-25T08:11:03;15.00;99.90
15700;DHT22;7950;42.744;23.174;2023-04-25T08:13:33;14.90;99.90
15700;DHT22;7950;42.744;23.174;2023-04-25T08:16:02;14.90;99.90
15700;DHT22;7950;42.744;23.174;2023-04-25T08:18:31;14.80;99.90
15700;DHT22;7950;42.744;23.174;2023-04-25T08:21:00;14.70;99.90
15700;DHT22;7950;42.744;23.174;2023-04-25T08:23:28;14.70;99.90
15700;DHT22;7950;42.744;23.174;2023-04-25T08:25:57;14.60;99.90
15700;DHT22;7950;42.744;23.174;2023-04-25T08:28:26;14.50;99.90
15700;DHT22;7950;42.744;23.174;2023-04-25T08:30:56;14.40;99.90
15700;DHT22;7950;42.744;23.174;2023-04-25T08:33:25;14.30;99.90
15700;DHT22;7950;42.744;23.174;2023-04-25T08:35:54;14.30;99.90
15700;DHT22;7950;42.744;23.174;2023-04-25T08:38:23;14.60;99.90
15700;DHT22;7950;42.744;23.174;2023-04-25T08:40:51;15.10;99.90
15700;DHT22;7950;42.744;23.174;2023-04-25T08:43:23;15.60;99.90
15700;DHT22;7950;42.744;23.174;2023-04-25T08:45:53;16.00;99.90
15700;DHT22;7950;42.744;23.174;2023-04-25T08:48:28;16.20;99.90
15700;DHT22;7950;42.744;23.174;2023-04-25T08:51:21;16.20;99.90
15700;DHT22;7950;42.744;23.174;2023-04-25T08:54:17;16.00;99.90
15700;DHT22;7950;42.744;23.174;2023-04-25T08:57:02;16.00;99.90
15700;DHT22;7950;42.744;23.174;2023-04-25T08:59:32;16.00;99.90
15700;DHT22;7950;42.744;23.174;2023-04-25T09:02:04;16.40;99.90
15700;DHT22;7950;42.744;23.174;2023-04-25T09:04:34;16.80;99.90
15700;DHT22;7950;42.744;23.174;2023-04-25T09:07:04;17.10;99.90
15700;DHT22;7950;42.744;23.174;2023-04-25T09:09:32;17.30;99.90
15700;DHT22;7950;42.744;23.174;2023-04-25T09:12:01;17.40;99.90
15700;DHT22;7950;42.744;23.174;2023-04-25T09:14:30;17.10;99.90
15700;DHT22;7950;42.744;23.174;2023-04-25T09:17:03;17.00;99.90
15700;DHT22;7950;42.744;23.174;2023-04-25T09:19:37;16.80;99.30
15700;DHT22;7950;42.744;23.174;2023-04-25T09:22:08;16.60;99.90
15700;DHT22;7950;42.744;23.174;2023-04-25T09:24:38;16.70;99.90
15700;DHT22;7950;42.744;23.174;2023-04-25T09:27:34;16.70;99.90
15700;DHT22;7950;42.744;23.174;2023-04-25T09:30:03;16.90;99.90
15700;DHT22;7950;42.744;23.174;2023-04-25T09:32:33;17.00;99.90
15700;DHT22;7950;42.744;23.174;2023-04-25T09:35:04;17.20;99.90
15700;DHT22;7950;42.744;23.174;2023-04-25T09:37:35;17.30;99.90
15700;DHT22;7950;42.744;23.174;2023-04-25T09:40:06;17.50;99.90
15700;DHT22;7950;42.744;23.174;2023-04-25T09:42:41;17.80;99.90
15700;DHT22;7950;42.744;23.174;2023-04-25T09:45:20;18.00;99.90
15700;DHT22;7950;42.744;23.174;2023-04-25T09:47:49;18.20;99.90
15700;DHT22;7950;42.744;23.174;2023-04-25T09:50:19;18.10;99.90
15700;DHT22;7950;42.744;23.174;2023-04-25T09:53:04;18.10;99.90
15700;DHT22;7950;42.744;23.174;2023-04-25T09:55:34;18.00;99.90
15700;DHT22;7950;42.744;23.174;2023-04-25T09:58:05;17.90;99.90
15700;DHT22;7950;42.744;23.174;2023-04-25T10:00:35;17.70;99.90
15700;DHT22;7950;42.744;23.174;2023-04-25T10:03:05;17.50;99.90
15700;DHT22;7950;42.744;23.174;2023-04-25T10:05:37;17.30;99.90
15700;DHT22;7950;42.744;23.174;2023-04-25T10:08:07;17.20;99.90
15700;DHT22;7950;42.744;23.174;2023-04-25T10:10:37;17.10;99.90
15700;DHT22;7950;42.744;23.174;2023-04-25T10:13:08;16.90;91.40
15700;DHT22;7950;42.744;23.174;2023-04-25T10:15:37;16.80;90.50
15700;DHT22;7950;42.744;23.174;2023-04-25T10:18:07;16.70;90.60
15700;DHT22;7950;42.744;23.174;2023-04-25T10:20:38;16.60;99.90
15700;DHT22;7950;42.744;23.174;2023-04-25T10:23:12;16.20;99.90
15700;DHT22;7950;42.744;23.174;2023-04-25T10:25:44;15.80;99.90
15700;DHT22;7950;42.744;23.174;2023-04-25T10:28:13;15.40;99.90
15700;DHT22;7950;42.744;23.174;2023-04-25T10:30:57;15.00;99.90
15700;DHT22;7950;42.744;23.174;2023-04-25T10:33:33;14.70;99.90
15700;DHT22;7950;42.744;23.174;2023-04-25T10:36:11;14.50;99.90
15700;DHT22;7950;42.744;23.174;2023-04-25T10:38:42;14.60;99.90
15700;DHT22;7950;42.744;23.174;2023-04-25T10:41:12;14.80;99.90
15700;DHT22;7950;42.744;23.174;2023-04-25T10:43:43;15.30;99.90
15700;DHT22;7950;42.744;23.174;2023-04-25T10:46:17;15.50;99.90
15700;DHT22;7950;42.744;23.174;2023-04-25T10:52:24;15.60;99.90
15700;DHT22;7950;42.744;23.174;2023-04-25T10:54:56;15.60;99.90
15700;DHT22;7950;42.744;23.174;2023-04-25T10:57:30;15.80;99.90
15700;DHT22;7950;42.744;23.174;2023-04-25T11:00:07;15.90;99.90
15700;DHT22;7950;42.744;23.174;2023-04-25T11:02:41;15.90;99.90
15700;DHT22;7950;42.744;23.174;2023-04-25T11:05:22;16.10;99.90
15700;DHT22;7950;42.744;23.174;2023-04-25T11:07:59;16.10;99.90
15700;DHT22;7950;42.744;23.174;2023-04-25T11:10:34;16.10;99.90
15700;DHT22;7950;42.744;23.174;2023-04-25T11:13:03;16.10;99.90
15700;DHT22;7950;42.744;23.174;2023-04-25T11:15:32;16.10;99.90
15700;DHT22;7950;42.744;23.174;2023-04-25T11:18:01;16.00;99.90
15700;DHT22;7950;42.744;23.174;2023-04-25T11:20:30;15.90;99.90
15700;DHT22;7950;42.744;23.174;2023-04-25T11:23:00;15.70;99.90
15700;DHT22;7950;42.744;23.174;2023-04-25T11:25:30;15.60;99.90
15700;DHT22;7950;42.744;23.174;2023-04-25T11:28:01;15.50;99.90
15700;DHT22;7950;42.744;23.174;2023-04-25T11:30:48;15.50;99.90
15700;DHT22;7950;42.744;23.174;2023-04-25T11:33:17;15.40;99.90
15700;DHT22;7950;42.744;23.174;2023-04-25T11:35:46;15.60;99.90
15700;DHT22;7950;42.744;23.174;2023-04-25T11:38:17;15.60;99.90
15700;DHT22;7950;42.744;23.174;2023-04-25T11:40:50;15.60;99.90
15700;DHT22;7950;42.744;23.174;2023-04-25T11:43:20;15.70;99.90
15700;DHT22;7950;42.744;23.174;2023-04-25T11:45:50;15.80;99.90
15700;DHT22;7950;42.744;23.174;2023-04-25T11:48:19;15.80;99.90
15700;DHT22;7950;42.744;23.174;2023-04-25T11:50:53;15.70;99.90
15700;DHT22;7950;42.744;23.174;2023-04-25T11:53:23;15.60;99.90
15700;DHT22;7950;42.744;23.174;2023-04-25T11:55:55;15.60;99.90
15700;DHT22;7950;42.744;23.174;2023-04-25T11:58:24;15.80;99.90
15700;DHT22;7950;42.744;23.174;2023-04-25T12:00:53;16.10;99.90
15700;DHT22;7950;42.744;23.174;2023-04-25T12:03:25;16.40;99.90
15700;DHT22;7950;42.744;23.174;2023-04-25T12:06:02;16.50;99.90
15700;DHT22;7950;42.744;23.174;2023-04-25T12:08:34;16.50;99.90
15700;DHT22;7950;42.744;23.174;2023-04-25T12:11:03;16.30;99.90
15700;DHT22;7950;42.744;23.174;2023-04-25T12:13:32;15.90;99.90
15700;DHT22;7950;42.744;23.174;2023-04-25T12:16:01;15.40;99.90
15700;DHT22;7950;42.744;23.174;2023-04-25T12:18:30;15.00;99.90
15700;DHT22;7950;42.744;23.174;2023-04-25T12:20:58;14.50;99.90
15700;DHT22;7950;42.744;23.174;2023-04-25T12:23:27;14.10;99.90
15700;DHT22;7950;42.744;23.174;2023-04-25T12:25:59;14.10;99.90
15700;DHT22;7950;42.744;23.174;2023-04-25T12:28:32;14.30;99.90
15700;DHT22;7950;42.744;23.174;2023-04-25T12:31:02;14.50;99.90
15700;DHT22;7950;42.744;23.174;2023-04-25T12:33:34;14.80;99.90
15700;DHT22;7950;42.744;23.174;2023-04-25T12:36:05;14.90;99.90
15700;DHT22;7950;42.744;23.174;2023-04-25T12:38:39;14.80;99.90
15700;DHT22;7950;42.744;23.174;2023-04-25T12:41:10;14.60;99.90
15700;DHT22;7950;42.744;23.174;2023-04-25T12:43:39;14.40;99.90
15700;DHT22;7950;42.744;23.174;2023-04-25T12:46:07;14.30;99.90
15700;DHT22;7950;42.744;23.174;2023-04-25T12:48:36;14.30;99.90
15700;DHT22;7950;42.744;23.174;2023-04-25T12:51:05;14.20;99.90
15700;DHT22;7950;42.744;23.174;2023-04-25T12:53:34;14.10;99.90
15700;DHT22;7950;42.744;23.174;2023-04-25T12:56:05;14.10;99.90
15700;DHT22;7950;42.744;23.174;2023-04-25T12:58:36;14.20;99.90
15700;DHT22;7950;42.744;23.174;2023-04-25T13:01:04;14.10;99.90
15700;DHT22;7950;42.744;23.174;2023-04-25T13:03:34;14.10;99.90
15700;DHT22;7950;42.744;23.174;2023-04-25T13:06:03;14.20;99.90
15700;DHT22;7950;42.744;23.174;2023-04-25T13:08:33;14.10;99.90
15700;DHT22;7950;42.744;23.174;2023-04-25T13:11:02;14.10;99.90
15700;DHT22;7950;42.744;23.174;2023-04-25T13:13:31;14.10;99.90
15700;DHT22;7950;42.744;23.174;2023-04-25T13:16:03;14.00;99.90
15700;DHT22;7950;42.744;23.174;2023-04-25T13:18:33;13.90;99.90
15700;DHT22;7950;42.744;23.174;2023-04-25T13:21:02;13.80;99.90
15700;DHT22;7950;42.744;23.174;2023-04-25T13:23:31;13.70;99.90
15700;DHT22;7950;42.744;23.174;2023-04-25T13:26:00;13.60;99.90
15700;DHT22;7950;42.744;23.174;2023-04-25T13:28:29;13.50;99.90
15700;DHT22;7950;42.744;23.174;2023-04-25T13:30:58;13.50;99.90
15700;DHT22;7950;42.744;23.174;2023-04-25T13:33:28;13.40;99.90
15700;DHT22;7950;42.744;23.174;2023-04-25T13:35:57;13.40;99.90
15700;DHT22;7950;42.744;23.174;2023-04-25T13:38:26;13.40;99.90
15700;DHT22;7950;42.744;23.174;2023-04-25T13:40:54;13.40;99.90
15700;DHT22;7950;42.744;23.174;2023-04-25T13:43:23;13.40;99.90
15700;DHT22;7950;42.744;23.174;2023-04-25T13:45:52;13.50;99.90
15700;DHT22;7950;42.744;23.174;2023-04-25T13:48:21;13.70;99.90
15700;DHT22;7950;42.744;23.174;2023-04-25T13:50:51;13.90;99.90
15700;DHT22;7950;42.744;23.174;2023-04-25T13:53:20;14.00;99.90
15700;DHT22;7950;42.744;23.174;2023-04-25T13:55:50;14.10;99.90
15700;DHT22;7950;42.744;23.174;2023-04-25T13:58:19;14.20;99.90
15700;DHT22;7950;42.744;23.174;2023-04-25T14:00:48;14.40;99.90
15700;DHT22;7950;42.744;23.174;2023-04-25T14:03:17;14.50;99.90
15700;DHT22;7950;42.744;23.174;2023-04-25T14:05:46;14.50;99.90
15700;DHT22;7950;42.744;23.174;2023-04-25T14:08:16;14.40;99.90
15700;DHT22;7950;42.744;23.174;2023-04-25T14:10:44;14.40;99.90
15700;DHT22;7950;42.744;23.174;2023-04-25T14:13:25;14.40;99.90
15700;DHT22;7950;42.744;23.174;2023-04-25T14:15:54;14.40;99.90
15700;DHT22;7950;42.744;23.174;2023-04-25T14:18:23;14.40;99.90
15700;DHT22;7950;42.744;23.174;2023-04-25T14:20:52;14.40;99.90
15700;DHT22;7950;42.744;23.174;2023-04-25T14:23:22;14.30;99.90
15700;DHT22;7950;42.744;23.174;2023-04-25T14:25:51;14.20;99.90
15700;DHT22;7950;42.744;23.174;2023-04-25T14:28:20;14.00;99.90
15700;DHT22;7950;42.744;23.174;2023-04-25T14:30:49;14.00;99.90
15700;DHT22;7950;42.744;23.174;2023-04-25T14:33:18;14.10;99.90
15700;DHT22;7950;42.744;23.174;2023-04-25T14:35:46;14.30;99.90
15700;DHT22;7950;42.744;23.174;2023-04-25T14:38:15;14.40;99.90
15700;DHT22;7950;42.744;23.174;2023-04-25T14:40:45;14.40;99.90
15700;DHT22;7950;42.744;23.174;2023-04-25T14:43:14;14.40;99.90
15700;DHT22;7950;42.744;23.174;2023-04-25T14:45:49;14.30;99.90
15700;DHT22;7950;42.744;23.174;2023-04-25T14:48:18;14.30;99.90
15700;DHT22;7950;42.744;23.174;2023-04-25T14:50:47;14.30;99.90
15700;DHT22;7950;42.744;23.174;2023-04-25T14:53:30;14.30;99.90
15700;DHT22;7950;42.744;23.174;2023-04-25T14:56:01;14.30;99.90
15700;DHT22;7950;42.744;23.174;2023-04-25T14:58:30;14.30;99.90
15700;DHT22;7950;42.744;23.174;2023-04-25T15:00:59;14.30;99.90
15700;DHT22;7950;42.744;23.174;2023-04-25T15:03:29;14.20;99.90
15700;DHT22;7950;42.744;23.174;2023-04-25T15:05:58;14.10;99.90
15700;DHT22;7950;42.744;23.174;2023-04-25T15:08:28;14.00;99.90
15700;DHT22;7950;42.744;23.174;2023-04-25T15:11:30;14.00;99.90
15700;DHT22;7950;42.744;23.174;2023-04-25T15:14:24;13.90;99.90
15700;DHT22;7950;42.744;23.174;2023-04-25T15:16:53;13.90;99.90
15700;DHT22;7950;42.744;23.174;2023-04-25T15:19:22;13.90;99.90
15700;DHT22;7950;42.744;23.174;2023-04-25T15:21:51;13.90;99.90
15700;DHT22;7950;42.744;23.174;2023-04-25T15:24:20;13.80;99.90
15700;DHT22;7950;42.744;23.174;2023-04-25T15:26:50;13.80;99.90
15700;DHT22;7950;42.744;23.174;2023-04-25T15:29:19;13.80;99.90
15700;DHT22;7950;42.744;23.174;2023-04-25T15:43:55;13.80;99.90
15700;DHT22;7950;42.744;23.174;2023-04-25T15:46:24;13.70;99.90
15700;DHT22;7950;42.744;23.174;2023-04-25T15:48:52;13.50;99.90
15700;DHT22;7950;42.744;23.174;2023-04-25T15:51:21;13.20;99.90
15700;DHT22;7950;42.744;23.174;2023-04-25T15:54:15;12.90;99.90
15700;DHT22;7950;42.744;23.174;2023-04-25T15:56:43;12.50;99.90
15700;DHT22;7950;42.744;23.174;2023-04-25T15:59:14;12.20;99.90
15700;DHT22;7950;42.744;23.174;2023-04-25T16:01:42;11.90;99.90
15700;DHT22;7950;42.744;23.174;2023-04-25T16:04:11;11.80;99.90
15700;DHT22;7950;42.744;23.174;2023-04-25T16:06:40;11.70;99.90
15700;DHT22;7950;42.744;23.174;2023-04-25T16:09:09;11.70;99.90